Truchas, New Mexico
Current Conditions -  °F | °C
As of 4:35 PM on Saturday 22 Nov 2014 (Local Time) from KLAM Reporting Station
Clear Clear  
Wind Chill: 44°   Ceiling: Unl
Heat Index: 44°   Visibility: 10mi
Dew Point: 19°   Wind: 0mph
Humidity: 37%   Direction: NA
Pressure: 29.95"   Gusts: NA
Location:  36.04°N, 105.82°W
Report Text: KLAM 222335Z AUTO 00000KT 10SM CLR 07/M07 A2995 RMK AO2 T00671072
Loading
Personal Weather Stations






























Interactive Weather Map New forecast layout! Learn more

10-Day Weather Forecast

Advertisements
Track Severe Weather on mobile